sensor_id;sensor_type;location;lat;lon;timestamp;P1;durP1;ratioP1;P2;durP2;ratioP2
69890;SDS011;57170;43.964;21.262;2022-12-29T00:01:54;61.08;;;42.00;;
69890;SDS011;57170;43.964;21.262;2022-12-29T00:04:20;46.08;;;32.80;;
69890;SDS011;57170;43.964;21.262;2022-12-29T00:06:46;65.18;;;45.40;;
69890;SDS011;57170;43.964;21.262;2022-12-29T00:09:13;65.45;;;46.78;;
69890;SDS011;57170;43.964;21.262;2022-12-29T00:11:40;65.78;;;48.13;;
69890;SDS011;57170;43.964;21.262;2022-12-29T00:14:06;64.75;;;49.13;;
69890;SDS011;57170;43.964;21.262;2022-12-29T00:16:50;73.65;;;49.70;;
69890;SDS011;57170;43.964;21.262;2022-12-29T00:19:16;71.78;;;48.22;;
69890;SDS011;57170;43.964;21.262;2022-12-29T00:22:03;93.97;;;59.60;;
69890;SDS011;57170;43.964;21.262;2022-12-29T00:24:47;77.05;;;47.75;;
69890;SDS011;57170;43.964;21.262;2022-12-29T00:27:32;76.47;;;51.33;;
69890;SDS011;57170;43.964;21.262;2022-12-29T00:30:18;100.43;;;67.13;;
69890;SDS011;57170;43.964;21.262;2022-12-29T00:33:13;83.82;;;52.08;;
69890;SDS011;57170;43.964;21.262;2022-12-29T00:38:40;83.90;;;48.28;;
69890;SDS011;57170;43.964;21.262;2022-12-29T00:41:26;86.35;;;56.35;;
69890;SDS011;57170;43.964;21.262;2022-12-29T00:44:11;83.00;;;53.22;;
69890;SDS011;57170;43.964;21.262;2022-12-29T00:46:38;69.57;;;46.08;;
69890;SDS011;57170;43.964;21.262;2022-12-29T00:49:05;74.68;;;47.85;;
69890;SDS011;57170;43.964;21.262;2022-12-29T00:51:50;76.53;;;50.55;;
69890;SDS011;57170;43.964;21.262;2022-12-29T00:54:17;79.32;;;49.72;;
69890;SDS011;57170;43.964;21.262;2022-12-29T00:56:45;77.60;;;49.17;;
69890;SDS011;57170;43.964;21.262;2022-12-29T00:59:11;71.68;;;45.20;;
69890;SDS011;57170;43.964;21.262;2022-12-29T01:01:37;64.50;;;40.80;;
69890;SDS011;57170;43.964;21.262;2022-12-29T01:04:04;60.03;;;41.83;;
69890;SDS011;57170;43.964;21.262;2022-12-29T01:06:30;57.17;;;38.78;;
69890;SDS011;57170;43.964;21.262;2022-12-29T01:08:57;56.85;;;38.47;;
69890;SDS011;57170;43.964;21.262;2022-12-29T01:11:41;53.63;;;35.60;;
69890;SDS011;57170;43.964;21.262;2022-12-29T01:14:08;50.17;;;34.17;;
69890;SDS011;57170;43.964;21.262;2022-12-29T01:16:34;46.38;;;34.97;;
69890;SDS011;57170;43.964;21.262;2022-12-29T01:19:01;48.92;;;32.53;;
69890;SDS011;57170;43.964;21.262;2022-12-29T01:21:27;41.83;;;29.30;;
69890;SDS011;57170;43.964;21.262;2022-12-29T01:23:53;45.75;;;30.90;;
69890;SDS011;57170;43.964;21.262;2022-12-29T01:26:19;53.40;;;34.47;;
69890;SDS011;57170;43.964;21.262;2022-12-29T01:28:45;62.97;;;42.88;;
69890;SDS011;57170;43.964;21.262;2022-12-29T01:31:13;43.13;;;30.65;;
69890;SDS011;57170;43.964;21.262;2022-12-29T01:33:39;44.97;;;31.38;;
69890;SDS011;57170;43.964;21.262;2022-12-29T01:36:07;45.63;;;31.60;;
69890;SDS011;57170;43.964;21.262;2022-12-29T01:38:34;46.25;;;31.13;;
69890;SDS011;57170;43.964;21.262;2022-12-29T01:41:00;48.22;;;33.10;;
69890;SDS011;57170;43.964;21.262;2022-12-29T01:46:16;52.55;;;36.42;;
69890;SDS011;57170;43.964;21.262;2022-12-29T01:48:45;46.97;;;32.22;;
69890;SDS011;57170;43.964;21.262;2022-12-29T01:51:12;41.45;;;30.45;;
69890;SDS011;57170;43.964;21.262;2022-12-29T01:53:38;39.50;;;27.23;;
69890;SDS011;57170;43.964;21.262;2022-12-29T01:56:04;41.30;;;30.08;;
69890;SDS011;57170;43.964;21.262;2022-12-29T01:58:32;45.00;;;32.15;;
69890;SDS011;57170;43.964;21.262;2022-12-29T02:00:59;47.28;;;30.50;;
69890;SDS011;57170;43.964;21.262;2022-12-29T02:03:26;42.65;;;30.92;;
69890;SDS011;57170;43.964;21.262;2022-12-29T02:05:55;41.25;;;29.90;;
69890;SDS011;57170;43.964;21.262;2022-12-29T02:08:22;46.20;;;29.58;;
69890;SDS011;57170;43.964;21.262;2022-12-29T02:10:50;41.45;;;27.98;;
69890;SDS011;57170;43.964;21.262;2022-12-29T02:13:16;45.75;;;31.13;;
69890;SDS011;57170;43.964;21.262;2022-12-29T02:33:59;47.60;;;30.58;;
69890;SDS011;57170;43.964;21.262;2022-12-29T02:39:05;39.55;;;30.90;;
69890;SDS011;57170;43.964;21.262;2022-12-29T02:41:34;52.28;;;30.08;;
69890;SDS011;57170;43.964;21.262;2022-12-29T02:46:51;45.53;;;30.98;;
69890;SDS011;57170;43.964;21.262;2022-12-29T02:49:28;55.35;;;33.67;;
69890;SDS011;57170;43.964;21.262;2022-12-29T02:52:08;65.65;;;41.40;;
69890;SDS011;57170;43.964;21.262;2022-12-29T02:54:35;61.97;;;38.63;;
69890;SDS011;57170;43.964;21.262;2022-12-29T02:59:33;44.78;;;28.30;;
69890;SDS011;57170;43.964;21.262;2022-12-29T03:07:18;50.97;;;36.05;;
69890;SDS011;57170;43.964;21.262;2022-12-29T03:12:34;42.92;;;32.17;;
69890;SDS011;57170;43.964;21.262;2022-12-29T03:15:33;53.60;;;36.20;;
69890;SDS011;57170;43.964;21.262;2022-12-29T03:18:22;51.40;;;34.97;;
69890;SDS011;57170;43.964;21.262;2022-12-29T03:20:56;50.20;;;31.08;;
69890;SDS011;57170;43.964;21.262;2022-12-29T03:23:26;47.45;;;31.27;;
69890;SDS011;57170;43.964;21.262;2022-12-29T03:25:53;44.97;;;32.30;;
69890;SDS011;57170;43.964;21.262;2022-12-29T03:28:25;47.15;;;32.17;;
69890;SDS011;57170;43.964;21.262;2022-12-29T03:30:54;42.78;;;31.40;;
69890;SDS011;57170;43.964;21.262;2022-12-29T03:33:21;46.03;;;31.25;;
69890;SDS011;57170;43.964;21.262;2022-12-29T03:35:49;42.45;;;29.83;;
69890;SDS011;57170;43.964;21.262;2022-12-29T03:40:43;35.28;;;27.60;;
69890;SDS011;57170;43.964;21.262;2022-12-29T03:43:11;34.72;;;26.48;;
69890;SDS011;57170;43.964;21.262;2022-12-29T03:45:38;41.35;;;28.35;;
69890;SDS011;57170;43.964;21.262;2022-12-29T03:48:04;38.22;;;27.35;;
69890;SDS011;57170;43.964;21.262;2022-12-29T03:50:30;44.55;;;29.48;;
69890;SDS011;57170;43.964;21.262;2022-12-29T03:52:56;46.85;;;31.55;;
69890;SDS011;57170;43.964;21.262;2022-12-29T03:55:22;43.08;;;28.27;;
69890;SDS011;57170;43.964;21.262;2022-12-29T03:57:48;42.08;;;29.08;;
69890;SDS011;57170;43.964;21.262;2022-12-29T04:00:14;45.20;;;31.70;;
69890;SDS011;57170;43.964;21.262;2022-12-29T04:02:41;46.38;;;31.90;;
69890;SDS011;57170;43.964;21.262;2022-12-29T04:05:07;44.10;;;29.55;;
69890;SDS011;57170;43.964;21.262;2022-12-29T04:07:33;39.03;;;26.77;;
69890;SDS011;57170;43.964;21.262;2022-12-29T04:09:59;35.13;;;26.98;;
69890;SDS011;57170;43.964;21.262;2022-12-29T04:12:25;35.10;;;26.02;;
69890;SDS011;57170;43.964;21.262;2022-12-29T04:14:51;37.75;;;24.63;;
69890;SDS011;57170;43.964;21.262;2022-12-29T04:17:17;33.92;;;25.52;;
69890;SDS011;57170;43.964;21.262;2022-12-29T04:19:44;38.90;;;27.05;;
69890;SDS011;57170;43.964;21.262;2022-12-29T04:22:10;30.55;;;24.67;;
69890;SDS011;57170;43.964;21.262;2022-12-29T04:24:37;34.55;;;25.05;;
69890;SDS011;57170;43.964;21.262;2022-12-29T04:27:03;39.42;;;25.38;;
69890;SDS011;57170;43.964;21.262;2022-12-29T04:29:29;35.95;;;25.05;;
69890;SDS011;57170;43.964;21.262;2022-12-29T04:31:55;40.40;;;28.05;;
69890;SDS011;57170;43.964;21.262;2022-12-29T04:34:21;37.03;;;27.05;;
69890;SDS011;57170;43.964;21.262;2022-12-29T04:36:47;39.90;;;27.15;;
69890;SDS011;57170;43.964;21.262;2022-12-29T04:39:13;43.00;;;28.83;;
69890;SDS011;57170;43.964;21.262;2022-12-29T04:41:39;40.72;;;29.83;;
69890;SDS011;57170;43.964;21.262;2022-12-29T04:44:05;36.08;;;27.33;;
69890;SDS011;57170;43.964;21.262;2022-12-29T04:46:32;39.90;;;26.48;;
69890;SDS011;57170;43.964;21.262;2022-12-29T04:48:58;39.35;;;26.17;;
69890;SDS011;57170;43.964;21.262;2022-12-29T04:51:25;37.30;;;27.75;;
69890;SDS011;57170;43.964;21.262;2022-12-29T04:53:51;36.40;;;26.00;;
69890;SDS011;57170;43.964;21.262;2022-12-29T04:56:17;38.38;;;30.13;;
69890;SDS011;57170;43.964;21.262;2022-12-29T04:58:43;46.15;;;32.53;;
69890;SDS011;57170;43.964;21.262;2022-12-29T05:01:09;37.30;;;26.60;;
69890;SDS011;57170;43.964;21.262;2022-12-29T05:03:35;42.55;;;27.85;;
69890;SDS011;57170;43.964;21.262;2022-12-29T05:06:01;42.05;;;26.95;;
69890;SDS011;57170;43.964;21.262;2022-12-29T05:08:28;34.25;;;25.92;;
69890;SDS011;57170;43.964;21.262;2022-12-29T05:10:54;38.22;;;25.75;;
69890;SDS011;57170;43.964;21.262;2022-12-29T05:13:20;34.63;;;24.77;;
69890;SDS011;57170;43.964;21.262;2022-12-29T05:15:52;36.88;;;26.67;;
69890;SDS011;57170;43.964;21.262;2022-12-29T05:18:18;41.65;;;28.98;;
69890;SDS011;57170;43.964;21.262;2022-12-29T05:20:45;44.05;;;27.08;;
69890;SDS011;57170;43.964;21.262;2022-12-29T05:23:12;48.00;;;31.40;;
69890;SDS011;57170;43.964;21.262;2022-12-29T05:25:38;45.90;;;33.72;;
69890;SDS011;57170;43.964;21.262;2022-12-29T05:28:04;47.95;;;30.52;;
69890;SDS011;57170;43.964;21.262;2022-12-29T05:30:30;45.20;;;30.58;;
69890;SDS011;57170;43.964;21.262;2022-12-29T05:32:56;39.88;;;28.15;;
69890;SDS011;57170;43.964;21.262;2022-12-29T05:35:22;53.08;;;34.78;;
69890;SDS011;57170;43.964;21.262;2022-12-29T05:37:48;56.53;;;36.17;;
69890;SDS011;57170;43.964;21.262;2022-12-29T05:40:14;53.20;;;36.90;;
69890;SDS011;57170;43.964;21.262;2022-12-29T05:42:40;54.55;;;38.53;;
69890;SDS011;57170;43.964;21.262;2022-12-29T05:45:07;51.25;;;35.67;;
69890;SDS011;57170;43.964;21.262;2022-12-29T05:47:33;66.20;;;44.97;;
69890;SDS011;57170;43.964;21.262;2022-12-29T05:49:59;60.88;;;41.30;;
69890;SDS011;57170;43.964;21.262;2022-12-29T05:52:44;62.05;;;41.50;;
69890;SDS011;57170;43.964;21.262;2022-12-29T05:55:10;70.07;;;46.17;;
69890;SDS011;57170;43.964;21.262;2022-12-29T05:57:36;51.97;;;39.35;;
69890;SDS011;57170;43.964;21.262;2022-12-29T06:00:03;49.42;;;34.65;;
69890;SDS011;57170;43.964;21.262;2022-12-29T06:02:29;50.55;;;33.30;;
69890;SDS011;57170;43.964;21.262;2022-12-29T06:04:55;47.42;;;34.40;;
69890;SDS011;57170;43.964;21.262;2022-12-29T06:07:21;37.22;;;28.50;;
69890;SDS011;57170;43.964;21.262;2022-12-29T06:09:47;43.63;;;31.20;;
69890;SDS011;57170;43.964;21.262;2022-12-29T06:12:13;41.42;;;30.65;;
69890;SDS011;57170;43.964;21.262;2022-12-29T06:14:39;40.10;;;28.40;;
69890;SDS011;57170;43.964;21.262;2022-12-29T06:17:05;41.05;;;29.58;;
69890;SDS011;57170;43.964;21.262;2022-12-29T06:19:32;49.05;;;32.50;;
69890;SDS011;57170;43.964;21.262;2022-12-29T06:21:58;45.33;;;29.45;;
69890;SDS011;57170;43.964;21.262;2022-12-29T06:24:24;45.90;;;30.60;;
69890;SDS011;57170;43.964;21.262;2022-12-29T06:26:50;42.83;;;28.55;;
69890;SDS011;57170;43.964;21.262;2022-12-29T06:29:16;72.55;;;43.78;;
69890;SDS011;57170;43.964;21.262;2022-12-29T06:31:43;52.72;;;34.67;;
69890;SDS011;57170;43.964;21.262;2022-12-29T06:34:13;45.80;;;30.60;;
69890;SDS011;57170;43.964;21.262;2022-12-29T06:36:39;58.33;;;41.85;;
69890;SDS011;57170;43.964;21.262;2022-12-29T06:39:05;56.70;;;34.60;;
69890;SDS011;57170;43.964;21.262;2022-12-29T06:41:32;54.47;;;34.58;;
69890;SDS011;57170;43.964;21.262;2022-12-29T06:43:58;59.88;;;37.30;;
69890;SDS011;57170;43.964;21.262;2022-12-29T06:46:24;58.70;;;38.55;;
69890;SDS011;57170;43.964;21.262;2022-12-29T06:48:50;65.13;;;44.47;;
69890;SDS011;57170;43.964;21.262;2022-12-29T06:51:16;68.30;;;45.22;;
69890;SDS011;57170;43.964;21.262;2022-12-29T06:53:42;76.38;;;51.33;;
69890;SDS011;57170;43.964;21.262;2022-12-29T06:56:08;83.47;;;58.53;;
69890;SDS011;57170;43.964;21.262;2022-12-29T06:58:34;87.78;;;59.28;;
69890;SDS011;57170;43.964;21.262;2022-12-29T07:01:00;81.38;;;56.22;;
69890;SDS011;57170;43.964;21.262;2022-12-29T07:03:26;84.88;;;55.25;;
69890;SDS011;57170;43.964;21.262;2022-12-29T07:05:52;64.63;;;50.08;;
69890;SDS011;57170;43.964;21.262;2022-12-29T07:08:19;71.10;;;45.40;;
69890;SDS011;57170;43.964;21.262;2022-12-29T07:10:46;65.95;;;44.03;;
69890;SDS011;57170;43.964;21.262;2022-12-29T07:13:12;79.68;;;49.78;;
69890;SDS011;57170;43.964;21.262;2022-12-29T07:15:38;64.68;;;44.47;;
69890;SDS011;57170;43.964;21.262;2022-12-29T07:18:04;55.10;;;39.80;;
69890;SDS011;57170;43.964;21.262;2022-12-29T07:20:30;41.40;;;33.75;;
69890;SDS011;57170;43.964;21.262;2022-12-29T07:22:56;58.30;;;42.95;;
69890;SDS011;57170;43.964;21.262;2022-12-29T07:25:22;55.55;;;39.10;;
69890;SDS011;57170;43.964;21.262;2022-12-29T07:27:49;59.15;;;42.33;;
69890;SDS011;57170;43.964;21.262;2022-12-29T07:30:15;54.33;;;41.13;;
69890;SDS011;57170;43.964;21.262;2022-12-29T07:32:41;54.97;;;41.55;;
69890;SDS011;57170;43.964;21.262;2022-12-29T07:35:07;60.90;;;47.47;;
69890;SDS011;57170;43.964;21.262;2022-12-29T07:37:33;60.55;;;44.03;;
69890;SDS011;57170;43.964;21.262;2022-12-29T07:40:00;61.75;;;47.60;;
69890;SDS011;57170;43.964;21.262;2022-12-29T07:42:26;60.63;;;44.92;;
69890;SDS011;57170;43.964;21.262;2022-12-29T07:44:52;60.60;;;43.83;;
69890;SDS011;57170;43.964;21.262;2022-12-29T07:47:18;50.63;;;34.53;;
69890;SDS011;57170;43.964;21.262;2022-12-29T07:49:44;75.30;;;58.80;;
69890;SDS011;57170;43.964;21.262;2022-12-29T07:52:10;88.60;;;65.38;;
69890;SDS011;57170;43.964;21.262;2022-12-29T07:54:36;54.45;;;42.03;;
69890;SDS011;57170;43.964;21.262;2022-12-29T07:57:03;74.93;;;54.80;;
69890;SDS011;57170;43.964;21.262;2022-12-29T07:59:29;87.10;;;61.78;;
69890;SDS011;57170;43.964;21.262;2022-12-29T08:01:55;100.95;;;74.45;;
69890;SDS011;57170;43.964;21.262;2022-12-29T08:04:21;140.35;;;93.93;;
69890;SDS011;57170;43.964;21.262;2022-12-29T08:06:47;117.80;;;85.95;;
69890;SDS011;57170;43.964;21.262;2022-12-29T08:09:13;154.90;;;106.07;;
69890;SDS011;57170;43.964;21.262;2022-12-29T08:11:40;120.60;;;95.38;;
69890;SDS011;57170;43.964;21.262;2022-12-29T08:14:06;101.90;;;75.57;;
69890;SDS011;57170;43.964;21.262;2022-12-29T08:16:32;93.15;;;69.78;;
69890;SDS011;57170;43.964;21.262;2022-12-29T08:18:58;100.50;;;81.55;;
69890;SDS011;57170;43.964;21.262;2022-12-29T08:21:24;105.82;;;92.85;;
69890;SDS011;57170;43.964;21.262;2022-12-29T08:23:50;92.70;;;78.25;;
69890;SDS011;57170;43.964;21.262;2022-12-29T08:26:17;73.28;;;62.00;;
69890;SDS011;57170;43.964;21.262;2022-12-29T08:28:43;104.32;;;89.13;;
69890;SDS011;57170;43.964;21.262;2022-12-29T08:31:09;103.47;;;91.78;;
69890;SDS011;57170;43.964;21.262;2022-12-29T08:33:35;117.55;;;97.70;;
69890;SDS011;57170;43.964;21.262;2022-12-29T08:36:02;100.60;;;78.90;;
69890;SDS011;57170;43.964;21.262;2022-12-29T08:38:28;113.20;;;100.35;;
69890;SDS011;57170;43.964;21.262;2022-12-29T08:40:55;114.35;;;98.55;;
69890;SDS011;57170;43.964;21.262;2022-12-29T15:16:59;69.97;;;53.60;;
69890;SDS011;57170;43.964;21.262;2022-12-29T15:19:26;81.43;;;56.13;;
69890;SDS011;57170;43.964;21.262;2022-12-29T15:21:52;116.60;;;84.72;;
69890;SDS011;57170;43.964;21.262;2022-12-29T15:24:19;96.55;;;71.18;;
69890;SDS011;57170;43.964;21.262;2022-12-29T15:26:46;88.43;;;62.47;;
69890;SDS011;57170;43.964;21.262;2022-12-29T15:29:28;90.20;;;69.22;;
69890;SDS011;57170;43.964;21.262;2022-12-29T15:31:56;87.00;;;63.90;;
69890;SDS011;57170;43.964;21.262;2022-12-29T15:34:23;91.65;;;70.40;;
69890;SDS011;57170;43.964;21.262;2022-12-29T15:36:49;95.95;;;69.07;;
69890;SDS011;57170;43.964;21.262;2022-12-29T15:39:29;83.28;;;60.30;;
69890;SDS011;57170;43.964;21.262;2022-12-29T15:41:56;104.97;;;82.82;;
69890;SDS011;57170;43.964;21.262;2022-12-29T15:44:26;114.15;;;79.75;;
69890;SDS011;57170;43.964;21.262;2022-12-29T15:46:54;94.25;;;66.95;;
69890;SDS011;57170;43.964;21.262;2022-12-29T15:49:20;147.68;;;108.25;;
69890;SDS011;57170;43.964;21.262;2022-12-29T15:51:48;128.13;;;93.68;;
69890;SDS011;57170;43.964;21.262;2022-12-29T15:54:16;84.45;;;63.08;;
69890;SDS011;57170;43.964;21.262;2022-12-29T15:56:43;86.95;;;62.70;;
69890;SDS011;57170;43.964;21.262;2022-12-29T16:02:07;113.47;;;80.35;;
69890;SDS011;57170;43.964;21.262;2022-12-29T16:04:35;122.03;;;94.85;;
69890;SDS011;57170;43.964;21.262;2022-12-29T16:07:03;190.98;;;141.23;;
69890;SDS011;57170;43.964;21.262;2022-12-29T16:11:56;125.00;;;96.90;;
69890;SDS011;57170;43.964;21.262;2022-12-29T16:14:45;157.68;;;120.38;;
69890;SDS011;57170;43.964;21.262;2022-12-29T16:17:13;182.73;;;138.43;;
69890;SDS011;57170;43.964;21.262;2022-12-29T16:19:41;145.88;;;109.78;;
69890;SDS011;57170;43.964;21.262;2022-12-29T16:22:11;161.45;;;118.75;;
69890;SDS011;57170;43.964;21.262;2022-12-29T16:24:38;161.50;;;114.78;;
69890;SDS011;57170;43.964;21.262;2022-12-29T16:27:47;130.02;;;94.22;;
69890;SDS011;57170;43.964;21.262;2022-12-29T16:29:54;140.75;;;103.43;;
69890;SDS011;57170;43.964;21.262;2022-12-29T16:32:30;157.48;;;116.47;;
69890;SDS011;57170;43.964;21.262;2022-12-29T16:37:41;182.13;;;135.35;;
69890;SDS011;57170;43.964;21.262;2022-12-29T16:43:18;187.90;;;140.48;;
69890;SDS011;57170;43.964;21.262;2022-12-29T16:50:39;351.38;;;245.77;;
69890;SDS011;57170;43.964;21.262;2022-12-29T16:53:15;291.25;;;205.27;;
69890;SDS011;57170;43.964;21.262;2022-12-29T16:55:47;101.38;;;78.15;;
69890;SDS011;57170;43.964;21.262;2022-12-29T16:58:35;206.40;;;148.45;;
69890;SDS011;57170;43.964;21.262;2022-12-29T17:01:00;229.32;;;178.50;;
69890;SDS011;57170;43.964;21.262;2022-12-29T17:03:33;185.73;;;138.43;;
69890;SDS011;57170;43.964;21.262;2022-12-29T17:05:59;120.25;;;95.68;;
69890;SDS011;57170;43.964;21.262;2022-12-29T17:08:26;117.35;;;95.88;;
69890;SDS011;57170;43.964;21.262;2022-12-29T17:10:54;128.70;;;97.85;;
69890;SDS011;57170;43.964;21.262;2022-12-29T17:13:39;120.75;;;96.78;;
69890;SDS011;57170;43.964;21.262;2022-12-29T17:16:06;122.28;;;93.43;;
69890;SDS011;57170;43.964;21.262;2022-12-29T17:18:33;155.50;;;109.82;;
69890;SDS011;57170;43.964;21.262;2022-12-29T17:21:00;133.73;;;109.15;;
69890;SDS011;57170;43.964;21.262;2022-12-29T17:23:26;121.28;;;91.57;;
69890;SDS011;57170;43.964;21.262;2022-12-29T17:25:52;122.10;;;89.47;;
69890;SDS011;57170;43.964;21.262;2022-12-29T17:28:22;119.03;;;92.13;;
69890;SDS011;57170;43.964;21.262;2022-12-29T17:30:49;137.63;;;106.95;;
69890;SDS011;57170;43.964;21.262;2022-12-29T17:33:16;144.80;;;115.40;;
69890;SDS011;57170;43.964;21.262;2022-12-29T17:35:43;175.82;;;134.45;;
69890;SDS011;57170;43.964;21.262;2022-12-29T17:38:15;149.00;;;116.28;;
69890;SDS011;57170;43.964;21.262;2022-12-29T17:40:42;168.55;;;133.48;;
69890;SDS011;57170;43.964;21.262;2022-12-29T17:43:08;147.40;;;118.68;;
69890;SDS011;57170;43.964;21.262;2022-12-29T17:45:36;159.25;;;129.52;;
69890;SDS011;57170;43.964;21.262;2022-12-29T17:48:04;122.18;;;93.40;;
69890;SDS011;57170;43.964;21.262;2022-12-29T17:50:30;102.38;;;77.45;;
69890;SDS011;57170;43.964;21.262;2022-12-29T17:52:58;108.18;;;89.05;;
69890;SDS011;57170;43.964;21.262;2022-12-29T17:55:24;121.30;;;91.50;;
69890;SDS011;57170;43.964;21.262;2022-12-29T17:57:51;123.63;;;97.47;;
69890;SDS011;57170;43.964;21.262;2022-12-29T18:00:21;142.07;;;113.00;;
69890;SDS011;57170;43.964;21.262;2022-12-29T18:02:48;180.18;;;142.10;;
69890;SDS011;57170;43.964;21.262;2022-12-29T18:05:18;226.52;;;178.55;;
69890;SDS011;57170;43.964;21.262;2022-12-29T18:07:45;160.60;;;127.28;;
69890;SDS011;57170;43.964;21.262;2022-12-29T18:10:11;155.75;;;120.03;;
69890;SDS011;57170;43.964;21.262;2022-12-29T18:12:38;188.73;;;143.38;;
69890;SDS011;57170;43.964;21.262;2022-12-29T18:15:06;219.93;;;173.75;;
69890;SDS011;57170;43.964;21.262;2022-12-29T18:17:37;220.30;;;172.18;;
69890;SDS011;57170;43.964;21.262;2022-12-29T18:20:03;231.02;;;175.10;;
69890;SDS011;57170;43.964;21.262;2022-12-29T18:22:29;201.48;;;155.95;;
69890;SDS011;57170;43.964;21.262;2022-12-29T18:24:56;184.57;;;137.60;;
69890;SDS011;57170;43.964;21.262;2022-12-29T18:27:22;182.18;;;141.75;;
69890;SDS011;57170;43.964;21.262;2022-12-29T18:29:48;159.40;;;127.60;;
69890;SDS011;57170;43.964;21.262;2022-12-29T18:32:14;150.98;;;121.55;;
69890;SDS011;57170;43.964;21.262;2022-12-29T18:34:41;117.22;;;93.25;;
69890;SDS011;57170;43.964;21.262;2022-12-29T18:37:08;109.55;;;84.15;;
69890;SDS011;57170;43.964;21.262;2022-12-29T18:39:34;116.20;;;92.38;;
69890;SDS011;57170;43.964;21.262;2022-12-29T18:42:01;103.07;;;79.00;;
69890;SDS011;57170;43.964;21.262;2022-12-29T18:44:27;126.15;;;98.97;;
69890;SDS011;57170;43.964;21.262;2022-12-29T18:46:53;117.40;;;85.07;;
69890;SDS011;57170;43.964;21.262;2022-12-29T18:49:20;112.10;;;83.50;;
69890;SDS011;57170;43.964;21.262;2022-12-29T18:51:46;113.07;;;92.88;;
69890;SDS011;57170;43.964;21.262;2022-12-29T18:54:33;130.10;;;99.85;;
69890;SDS011;57170;43.964;21.262;2022-12-29T18:56:59;121.72;;;100.45;;
69890;SDS011;57170;43.964;21.262;2022-12-29T18:59:25;135.18;;;111.40;;
69890;SDS011;57170;43.964;21.262;2022-12-29T19:01:51;160.90;;;127.57;;
69890;SDS011;57170;43.964;21.262;2022-12-29T19:04:17;101.70;;;81.13;;
69890;SDS011;57170;43.964;21.262;2022-12-29T19:06:43;112.38;;;88.60;;
69890;SDS011;57170;43.964;21.262;2022-12-29T19:09:09;110.55;;;87.28;;
69890;SDS011;57170;43.964;21.262;2022-12-29T19:11:36;118.47;;;96.97;;
69890;SDS011;57170;43.964;21.262;2022-12-29T19:14:02;119.15;;;90.63;;
69890;SDS011;57170;43.964;21.262;2022-12-29T19:16:28;148.43;;;115.72;;
69890;SDS011;57170;43.964;21.262;2022-12-29T19:18:54;127.03;;;99.95;;
69890;SDS011;57170;43.964;21.262;2022-12-29T19:21:20;110.72;;;87.63;;
69890;SDS011;57170;43.964;21.262;2022-12-29T19:23:47;102.22;;;81.28;;
69890;SDS011;57170;43.964;21.262;2022-12-29T19:26:23;102.43;;;81.22;;
69890;SDS011;57170;43.964;21.262;2022-12-29T19:28:52;101.53;;;81.53;;
69890;SDS011;57170;43.964;21.262;2022-12-29T19:31:18;86.78;;;69.10;;
69890;SDS011;57170;43.964;21.262;2022-12-29T19:33:44;112.78;;;84.22;;
69890;SDS011;57170;43.964;21.262;2022-12-29T19:36:10;137.85;;;104.88;;
69890;SDS011;57170;43.964;21.262;2022-12-29T19:38:39;172.15;;;133.65;;
69890;SDS011;57170;43.964;21.262;2022-12-29T19:41:05;188.93;;;151.63;;
69890;SDS011;57170;43.964;21.262;2022-12-29T19:43:32;133.65;;;105.05;;
69890;SDS011;57170;43.964;21.262;2022-12-29T19:45:58;129.80;;;104.65;;
69890;SDS011;57170;43.964;21.262;2022-12-29T19:48:24;155.63;;;119.63;;
69890;SDS011;57170;43.964;21.262;2022-12-29T19:50:50;85.20;;;67.78;;
69890;SDS011;57170;43.964;21.262;2022-12-29T19:53:16;76.53;;;59.47;;
69890;SDS011;57170;43.964;21.262;2022-12-29T19:55:43;83.13;;;67.57;;
69890;SDS011;57170;43.964;21.262;2022-12-29T19:58:09;134.57;;;117.68;;
69890;SDS011;57170;43.964;21.262;2022-12-29T20:00:37;74.20;;;60.50;;
69890;SDS011;57170;43.964;21.262;2022-12-29T20:03:03;67.97;;;53.35;;
69890;SDS011;57170;43.964;21.262;2022-12-29T20:05:29;75.00;;;57.88;;
69890;SDS011;57170;43.964;21.262;2022-12-29T20:07:55;88.85;;;66.35;;
69890;SDS011;57170;43.964;21.262;2022-12-29T20:10:22;77.82;;;63.65;;
69890;SDS011;57170;43.964;21.262;2022-12-29T20:12:48;99.10;;;71.40;;
69890;SDS011;57170;43.964;21.262;2022-12-29T20:15:14;114.07;;;83.38;;
69890;SDS011;57170;43.964;21.262;2022-12-29T20:17:40;119.68;;;89.90;;
69890;SDS011;57170;43.964;21.262;2022-12-29T20:20:06;144.65;;;99.20;;
69890;SDS011;57170;43.964;21.262;2022-12-29T20:22:32;114.93;;;88.70;;
69890;SDS011;57170;43.964;21.262;2022-12-29T20:24:59;145.10;;;106.78;;
69890;SDS011;57170;43.964;21.262;2022-12-29T20:27:25;173.02;;;125.97;;
69890;SDS011;57170;43.964;21.262;2022-12-29T20:29:51;118.05;;;87.47;;
69890;SDS011;57170;43.964;21.262;2022-12-29T20:32:19;144.02;;;106.25;;
69890;SDS011;57170;43.964;21.262;2022-12-29T20:34:45;136.00;;;102.65;;
69890;SDS011;57170;43.964;21.262;2022-12-29T20:37:12;123.18;;;93.13;;
69890;SDS011;57170;43.964;21.262;2022-12-29T20:39:39;153.48;;;112.07;;
69890;SDS011;57170;43.964;21.262;2022-12-29T20:42:05;131.85;;;101.32;;
69890;SDS011;57170;43.964;21.262;2022-12-29T20:44:32;93.78;;;67.55;;
69890;SDS011;57170;43.964;21.262;2022-12-29T20:46:58;98.47;;;77.65;;
69890;SDS011;57170;43.964;21.262;2022-12-29T20:49:24;125.68;;;85.88;;
69890;SDS011;57170;43.964;21.262;2022-12-29T20:51:51;111.10;;;83.07;;
69890;SDS011;57170;43.964;21.262;2022-12-29T20:54:17;104.88;;;76.93;;
69890;SDS011;57170;43.964;21.262;2022-12-29T20:56:43;101.78;;;73.85;;
69890;SDS011;57170;43.964;21.262;2022-12-29T20:59:10;101.43;;;72.93;;
69890;SDS011;57170;43.964;21.262;2022-12-29T21:01:36;104.57;;;68.78;;
69890;SDS011;57170;43.964;21.262;2022-12-29T21:04:02;90.68;;;63.70;;
69890;SDS011;57170;43.964;21.262;2022-12-29T21:06:29;92.38;;;68.68;;
69890;SDS011;57170;43.964;21.262;2022-12-29T21:08:55;95.72;;;70.95;;
69890;SDS011;57170;43.964;21.262;2022-12-29T21:11:21;86.20;;;57.63;;
69890;SDS011;57170;43.964;21.262;2022-12-29T21:13:48;109.35;;;81.13;;
69890;SDS011;57170;43.964;21.262;2022-12-29T21:16:14;81.93;;;60.25;;
69890;SDS011;57170;43.964;21.262;2022-12-29T21:18:42;73.38;;;52.50;;
69890;SDS011;57170;43.964;21.262;2022-12-29T21:21:16;86.35;;;55.25;;
69890;SDS011;57170;43.964;21.262;2022-12-29T21:23:42;83.55;;;59.53;;
69890;SDS011;57170;43.964;21.262;2022-12-29T21:26:08;129.10;;;91.18;;
69890;SDS011;57170;43.964;21.262;2022-12-29T21:28:38;139.20;;;97.05;;
69890;SDS011;57170;43.964;21.262;2022-12-29T21:31:06;124.45;;;91.13;;
69890;SDS011;57170;43.964;21.262;2022-12-29T21:33:32;112.72;;;76.90;;
69890;SDS011;57170;43.964;21.262;2022-12-29T21:36:05;101.65;;;76.93;;
69890;SDS011;57170;43.964;21.262;2022-12-29T21:41:05;103.57;;;77.03;;